KSPA

Details ICAO KSPA (SPA)
Name SPARTANBURG DOWNTOWN MEM
Region United States
Timezone America/New_York (UTC-4.0)
Plans Departing 43
Arriving 49
Stats Elevation 799 ft / 244 m (AMSL)
Location 34.914600° -81.954400°
Runways 1
Magnetic Variation 7.281° W
Sunrise 2022-10-02 11:24:24 UTC / 2022-10-02 07:24:24 Local
Sunset 2022-10-02 23:12:20 UTC / 2022-10-02 19:12:20 Local
Advertisement - Login to hide

Runways

ID Width Length Bearing (true/mag) Surface Threshold Overrun Markings Lighting
05 99 ft / 30 m 5,206 ft / 1,587 m 41.41° / 48.69° ASPHALT 0 ft / 0 m 0 ft / 0 m APP EDGE THRESHOLD MALSR
23 99 ft / 30 m 5,206 ft / 1,587 m 221.42° / 228.70° ASPHALT 0 ft / 0 m 0 ft / 0 m APP EDGE THRESHOLD

Map

Weather


0- 5 10 15 20 25 30 35+ Temperature / °C

Clouds and Precipitation
Forecast for 2022-10-02 12:00 UTC. Updated an hour ago

Ground ~20,000 ft ~40,000 ft Winds

METAR

KSPA 021035Z AUTO 00000KT 10SM CLR 10/09 A2993 RMK AO2

TAF

Not found

Frequencies

Recorded 133.92 MHz AWOS 3
Unicom 123.00 MHz CTAF/UNICOM
Warning: Do not use this data for real-world aviation or navigation. No guarantee of current accuracy is given.